Terminal Aerodrome Forecast
Issued by NWS

Home | Current Version | Previous Version | Text Only | Print | Product List | Glossary On
Versions: 1 2 3 4 5 6 7 8 9 10 11 12 13 14 15 16 17 18
000
FTAK31 PANC 281757
TAFADU
TAF
PADU 281757Z 2818/2918 VRB04KT 4SM -RA BR SCT003 BKN006 OVC015
      TEMPO 2818/2821 3SM -RA BR SCT006 BKN015
     FM282100 VRB03KT P6SM OVC015
     FM290000 10004KT P6SM SCT025 BKN050
     FM290600 00000KT P6SM OVC015=

USA.gov is the U.S. government's official web portal to all federal, state and local government web resources and services.